Airfield :
LOGIN :

Register | Disclaimer

   EN    FR    IT 

 










Legend :    VFR   Marginal VFR   IFR   Intensive IFR   Very Intensive IFR
Visi :
Ceiling :
>= 8 km
>= 3000ft
5 to 8 km
1000 to 3000 ft
1500m to 5 km
500 to 1000 ft
800 to 1500m
200 to 500 ft
< 800m
< 200 ft
Symbols :   Thunderstorms  Fog  Heavy snow  Heavy precipitations  Wind > 20 kt
SIGMETs :     Misc.  Thunderstorms  Icing  Turbulence  Mountain Waves  Volcanic Ashes






- Airport Elevation : 499 ft
- IATA code : TLS


LFBO - Toulouse / Blagnac

CURRENT METAR :
  • 260130Z AUTO 24006KT 9999 -RA FEW010/// BKN056/// OVC068/// ///TCU 10/09 Q1010 TEMPO 4000 SHRA

EXPIRED METARs :
  • 260100Z AUTO 24006KT 9000 RA FEW010/// SCT016/// BKN049/// ///TCU 10/10 Q1011 TEMPO 4000 SHRA
  • 260030Z AUTO 20006KT 9999 -RA FEW042 OVC052 10/10 Q1011 TEMPO 4000 SHRA BKN025TCU BECMG 29010KT
  • 260000Z AUTO 20006KT 9999 -RA ///TCU 11/10 Q1011 BECMG 29010KT
  • 252330Z AUTO 24005KT 210V280 9999 -RA FEW010/// OVC070/// ///CB 11/10 Q1010 NOSIG
  • 252300Z AUTO 26005KT 230V290 9999 -RA BKN012/// BKN025/// BKN045/// ///CB 11/10 Q1010 TEMPO 3000 RA SCT008 BKN012

TAF TAF LFBO
Valid from the 26 at 00:00 until the 27 at 06:00 UTC


252300Z 2600/2706 29010KT 9999 -RA SCT008 BKN030
BECMG 2600/2602 NSW SCT030TCU
TEMPO 2602/2605 4000 SHRA BKN025TCU
TEMPO 2608/2613 30016G26KT -SHRA SCT025 SCT040TCU
BECMG 2615/2617 BKN040
ATIS : +33 5 62 74 66 36



MET'MAP, your aeronautical weather chart ! - Copyright ORBIFLY December 2007 - Disclaimer

ORBIFLY MET'MAP TEAM :

Programming & Development : Alexandra Zaïnal
Concept & original design : Baudouin d'Aumeries
Assistance for programming : Marc-Olivier Méhu
Technical & hardware support : Manuel Goepfert

Contact : metmap@orbifly.com




SOURCES & CREDITS :

   NOAA